KONT/ONT METAR and TAF weather

Enter ICAO airport designator
Station Type Date Time Source
KONT METAR 2019/06/19 01:53 UTC NOAA

KONT 190153Z 24011KT 10SM FEW060 25/16 A2993 RMK AO2 SLP123 HAZY T02500156


Station Type Date Time Source
KONT Decoded METAR 2019/06/19 01:53 UTC NOAA

ONTARIO INTERNATIONAL AIRPORT, CA, United States (KONT) 34-03N 117-35W 275M
Jun 18, 2019 - 09:53 PM EDT / 2019.06.19 0153 UTC
Wind: from the WSW (240 degrees) at 13 MPH (11 KT):0
Visibility: 10 mile(s):0
Sky conditions: mostly clear
Temperature: 77.0 F (25.0 C)
Dew Point: 60.1 F (15.6 C)
Relative Humidity: 55%
Pressure (altimeter): 29.93 in. Hg (1013 hPa)
ob: KONT 190153Z 24011KT 10SM FEW060 25/16 A2993 RMK AO2 SLP123 HAZY T02500156
cycle: 2

Station Type Date Time Source
KONT TAF 2019/06/18 18:33 UTC NOAA

TAF KONT 181730Z 1818/1924 24005KT 5SM HZ SCT015
FM182000 26011KT P6SM SKC
FM190400 25006KT P6SM SCT015
FM190700 VRB04KT P6SM OVC010
FM191300 VRB03KT 3SM HZ OVC009
FM191700 VRB05KT 5SM HZ SCT015
FM192000 26012KT P6SM SKC

Example: see airport list